Time;durP1;ratioP1;P1;durP2;ratioP2;P2;SDS_P1;SDS_P2;PMS_P1;PMS_P2;Temp;Humidity;BMP_temperature;BMP_pressure;BME280_temperature;BME280_humidity;BME280_pressure;Samples;Min_cycle;Max_cycle;Signal;HPM_P1;HPM_P2
2024/01/13 00:00:15;;;;;;;33.00;22.70;;;;;20.50;101684.00;;;;2080384;28;20227;-52
2024/01/13 00:01:15;;;;;;;32.63;23.80;;;;;20.50;101679.00;;;;2087942;28;20220;-52
2024/01/13 00:02:16;;;;;;;35.27;24.10;;;;;20.50;101684.00;;;;2080006;28;20786;-50
2024/01/13 00:03:16;;;;;;;32.47;23.20;;;;;20.50;101687.00;;;;2087621;28;20216;-52
2024/01/13 00:04:16;;;;;;;32.53;24.20;;;;;20.50;101691.00;;;;2086898;28;21042;-57
2024/01/13 00:05:18;;;;;;;31.70;24.10;;;;;20.50;101686.00;;;;2087196;28;20796;-52
2024/01/13 00:06:18;;;;;;;32.42;24.88;;;;;20.50;101683.00;;;;2087050;28;20212;-52
2024/01/13 00:07:18;;;;;;;33.10;24.37;;;;;20.50;101682.00;;;;2077497;28;20212;-55
2024/01/13 00:08:19;;;;;;;30.83;21.67;;;;;20.50;101682.00;;;;2086128;28;20228;-53
2024/01/13 00:09:19;;;;;;;31.03;22.00;;;;;20.50;101681.00;;;;2094445;28;20711;-54
2024/01/13 00:10:19;;;;;;;31.30;22.00;;;;;20.40;101684.00;;;;2080287;28;20244;-53
2024/01/13 00:11:20;;;;;;;33.67;22.50;;;;;20.40;101677.00;;;;2087457;28;20213;-52
2024/01/13 00:12:20;;;;;;;29.80;21.90;;;;;20.50;101682.00;;;;2076234;28;20212;-52
2024/01/13 00:13:20;;;;;;;29.20;22.20;;;;;20.50;101675.00;;;;2091284;28;20243;-51
2024/01/13 00:14:21;;;;;;;29.20;21.77;;;;;20.40;101682.00;;;;2087499;28;20221;-51
2024/01/13 00:15:21;;;;;;;31.90;22.10;;;;;20.40;101670.00;;;;2087473;28;20225;-51
2024/01/13 00:16:21;;;;;;;31.80;22.07;;;;;20.40;101675.00;;;;2088602;28;20238;-51
2024/01/13 00:17:22;;;;;;;31.23;20.43;;;;;20.40;101673.00;;;;2078058;28;20294;-51
2024/01/13 00:18:22;;;;;;;28.27;21.00;;;;;20.40;101675.00;;;;2080009;28;20245;-52
2024/01/13 00:19:23;;;;;;;29.80;21.80;;;;;20.40;101668.00;;;;2087666;28;20286;-52
2024/01/13 00:20:23;;;;;;;29.63;21.13;;;;;20.40;101669.00;;;;2087740;28;20335;-52
2024/01/13 00:21:23;;;;;;;30.13;21.33;;;;;20.40;101670.00;;;;2088052;28;20455;-52
2024/01/13 00:22:24;;;;;;;28.47;21.13;;;;;20.40;101665.00;;;;2075626;28;20220;-52
2024/01/13 00:23:24;;;;;;;27.83;20.80;;;;;20.40;101672.00;;;;2088578;28;20272;-51
2024/01/13 00:24:24;;;;;;;27.97;20.23;;;;;20.30;101513.00;;;;2094071;28;20244;-51
2024/01/13 00:25:25;;;;;;;30.10;21.03;;;;;20.40;101671.00;;;;2087868;28;20217;-53
2024/01/13 00:26:25;;;;;;;30.53;21.27;;;;;20.40;101674.00;;;;2079442;28;20655;-51
2024/01/13 00:27:26;;;;;;;27.00;20.20;;;;;20.40;101665.00;;;;2068486;28;20224;-51
2024/01/13 00:28:26;;;;;;;30.20;20.80;;;;;20.40;101651.00;;;;2095555;28;20247;-51
2024/01/13 00:29:26;;;;;;;26.73;20.20;;;;;20.40;101668.00;;;;2093865;28;20218;-51
2024/01/13 00:30:27;;;;;;;26.60;20.10;;;;;20.40;101659.00;;;;2088078;28;20217;-51
2024/01/13 00:31:27;;;;;;;27.40;20.33;;;;;20.40;101651.00;;;;2084577;28;20220;-51
2024/01/13 00:32:27;;;;;;;22.93;18.40;;;;;20.40;101667.00;;;;2076526;28;20216;-51
2024/01/13 00:33:27;;;;;;;22.73;19.00;;;;;20.40;101655.00;;;;2087925;28;20637;-51
2024/01/13 00:34:28;;;;;;;29.57;20.60;;;;;20.40;101647.00;;;;2086477;28;20212;-52
2024/01/13 00:35:28;;;;;;;25.07;18.90;;;;;20.30;101651.00;;;;2087100;28;20251;-52
2024/01/13 00:36:28;;;;;;;25.87;19.40;;;;;20.30;101645.00;;;;2086702;28;20224;-52
2024/01/13 00:37:29;;;;;;;26.60;19.07;;;;;20.30;101645.00;;;;2077323;28;20243;-52
2024/01/13 00:38:29;;;;;;;29.20;20.27;;;;;20.30;101640.00;;;;2087019;28;20217;-52
2024/01/13 00:39:29;;;;;;;27.17;19.53;;;;;20.30;101634.00;;;;2087604;28;20301;-52
2024/01/13 00:40:30;;;;;;;23.87;19.20;;;;;20.30;101631.00;;;;2087153;28;20235;-51
2024/01/13 00:41:30;;;;;;;24.13;18.93;;;;;20.30;101633.00;;;;2087712;28;20247;-52
2024/01/13 00:42:30;;;;;;;26.27;18.40;;;;;20.30;101636.00;;;;2076481;28;20248;-52
2024/01/13 00:43:31;;;;;;;23.77;18.10;;;;;20.30;101635.00;;;;2086891;28;20216;-52
2024/01/13 00:44:31;;;;;;;26.73;20.67;;;;;20.30;101626.00;;;;2087131;28;20239;-52
2024/01/13 00:45:31;;;;;;;24.63;18.00;;;;;20.40;101636.00;;;;2087212;28;20220;-51
2024/01/13 00:46:32;;;;;;;26.43;18.70;;;;;20.40;101641.00;;;;2087812;28;20241;-52
2024/01/13 00:47:32;;;;;;;26.03;19.17;;;;;20.30;101636.00;;;;2077636;28;20228;-50
2024/01/13 00:48:35;;;;;;;25.17;18.27;;;;;20.30;101635.00;;;;2091053;28;20222;-51
2024/01/13 00:49:35;;;;;;;22.88;17.88;;;;;20.30;101634.00;;;;2093221;28;20219;-53
2024/01/13 00:50:35;;;;;;;24.70;18.53;;;;;20.30;101627.00;;;;2087309;28;20220;-52
2024/01/13 00:51:36;;;;;;;23.87;18.00;;;;;20.30;101629.00;;;;2087008;28;21328;-52
2024/01/13 00:52:36;;;;;;;26.10;18.40;;;;;20.30;101630.00;;;;2075726;28;20229;-51
2024/01/13 00:53:36;;;;;;;24.60;17.47;;;;;20.30;101627.00;;;;2088237;28;20630;-52
2024/01/13 00:54:37;;;;;;;26.23;19.40;;;;;20.30;101623.00;;;;2087577;28;20299;-51
2024/01/13 00:55:37;;;;;;;26.03;18.53;;;;;20.30;101629.00;;;;2086889;28;20278;-52
2024/01/13 00:56:37;;;;;;;26.80;18.50;;;;;20.30;101630.00;;;;2088083;28;20212;-52
2024/01/13 00:57:38;;;;;;;20.27;16.37;;;;;20.30;101630.00;;;;2077298;28;20339;-52
2024/01/13 00:58:38;;;;;;;23.67;17.00;;;;;20.30;101626.00;;;;2087498;28;20215;-52
2024/01/13 00:59:39;;;;;;;24.13;17.40;;;;;20.30;101631.00;;;;2084205;28;20209;-52
2024/01/13 01:00:39;;;;;;;20.53;16.00;;;;;20.30;101632.00;;;;2078867;28;20248;-51
2024/01/13 01:01:39;;;;;;;21.00;16.70;;;;;20.30;101626.00;;;;2087999;28;20217;-52
2024/01/13 01:02:40;;;;;;;23.40;16.40;;;;;20.20;101629.00;;;;2078179;28;20422;-52
2024/01/13 01:03:40;;;;;;;22.63;16.30;;;;;20.30;101628.00;;;;2095326;28;20223;-52
2024/01/13 01:04:40;;;;;;;20.40;16.73;;;;;20.20;101617.00;;;;2091411;28;20265;-53
2024/01/13 01:05:41;;;;;;;20.20;15.80;;;;;20.30;101619.00;;;;2088100;28;20213;-52
2024/01/13 01:06:41;;;;;;;19.23;15.30;;;;;20.30;101619.00;;;;2086957;28;20240;-50
2024/01/13 01:07:41;;;;;;;23.57;16.70;;;;;20.30;101626.00;;;;2075421;28;20258;-50
2024/01/13 01:08:42;;;;;;;21.20;16.33;;;;;20.30;101621.00;;;;2090221;28;20219;-51
2024/01/13 01:09:42;;;;;;;22.03;16.53;;;;;20.30;101624.00;;;;2088672;28;20213;-52
2024/01/13 01:10:42;;;;;;;21.17;15.97;;;;;20.20;101630.00;;;;2087991;28;20590;-52
2024/01/13 01:11:43;;;;;;;22.87;16.70;;;;;20.20;101626.00;;;;2085826;28;20979;-52
2024/01/13 01:12:43;;;;;;;22.07;16.80;;;;;20.20;101624.00;;;;2079435;28;20266;-53
2024/01/13 01:13:43;;;;;;;20.60;15.07;;;;;20.30;101703.00;;;;2092896;28;20224;-52
2024/01/13 01:14:44;;;;;;;20.23;15.47;;;;;20.20;101622.00;;;;2082202;28;20691;-50
2024/01/13 01:15:44;;;;;;;21.07;15.50;;;;;20.20;101623.00;;;;2077410;28;20231;-51
2024/01/13 01:16:44;;;;;;;20.47;15.13;;;;;20.20;101624.00;;;;2086484;28;20232;-51
2024/01/13 01:17:45;;;;;;;23.93;17.10;;;;;20.20;101620.00;;;;2077281;28;20239;-52
2024/01/13 01:18:45;;;;;;;19.77;15.60;;;;;20.20;101621.00;;;;2086320;28;20354;-52
2024/01/13 01:19:45;;;;;;;19.10;14.90;;;;;20.20;101609.00;;;;2085684;28;20241;-52
2024/01/13 01:20:46;;;;;;;19.50;15.27;;;;;20.20;101682.00;;;;2078150;28;20241;-52
2024/01/13 01:21:46;;;;;;;18.73;14.90;;;;;20.20;101608.00;;;;2078454;28;20217;-51
2024/01/13 01:22:46;;;;;;;21.70;15.50;;;;;20.20;101621.00;;;;2076836;28;20783;-51
2024/01/13 01:23:47;;;;;;;22.43;14.40;;;;;20.20;101608.00;;;;2093016;28;20785;-50
2024/01/13 01:24:48;;;;;;;19.85;14.80;;;;;20.20;101662.00;;;;2090970;28;20213;-53
2024/01/13 01:25:48;;;;;;;19.37;14.60;;;;;20.20;101604.00;;;;2076750;28;21150;-51
2024/01/13 01:26:48;;;;;;;20.60;15.10;;;;;20.20;101612.00;;;;2075701;28;20280;-53
2024/01/13 01:27:49;;;;;;;22.33;15.10;;;;;20.30;101605.00;;;;2078286;28;20236;-52
2024/01/13 01:28:49;;;;;;;19.80;13.80;;;;;20.20;101617.00;;;;2086489;28;20213;-52
2024/01/13 01:29:50;;;;;;;27.17;13.90;;;;;20.30;101620.00;;;;2081850;28;20248;-52
2024/01/13 01:30:50;;;;;;;20.90;14.00;;;;;20.20;101612.00;;;;2086620;28;20597;-52
2024/01/13 01:31:50;;;;;;;22.03;13.93;;;;;20.20;101607.00;;;;2087281;28;20220;-52
2024/01/13 01:32:51;;;;;;;18.63;14.17;;;;;20.20;101607.00;;;;2071401;28;20272;-51
2024/01/13 01:33:51;;;;;;;20.17;14.20;;;;;20.20;101590.00;;;;2086116;28;20270;-51
2024/01/13 01:34:51;;;;;;;23.20;14.50;;;;;20.20;101593.00;;;;2086895;28;20759;-50
2024/01/13 01:35:51;;;;;;;18.53;14.53;;;;;20.20;101595.00;;;;2086980;28;20258;-51
2024/01/13 01:36:52;;;;;;;18.00;14.47;;;;;20.20;101599.00;;;;2086706;28;20699;-51
2024/01/13 01:37:52;;;;;;;18.77;13.10;;;;;20.20;101595.00;;;;2080328;28;20711;-51
2024/01/13 01:38:52;;;;;;;18.20;13.70;;;;;20.10;101600.00;;;;2094752;28;20707;-52
2024/01/13 01:39:53;;;;;;;18.90;12.93;;;;;20.10;101643.00;;;;2088906;28;20685;-52
2024/01/13 01:40:54;;;;;;;19.43;13.33;;;;;20.10;101593.00;;;;2086157;28;20651;-50
2024/01/13 01:41:54;;;;;;;18.40;13.70;;;;;20.10;101595.00;;;;2091950;28;20240;-51
2024/01/13 01:42:54;;;;;;;20.50;13.97;;;;;20.10;101588.00;;;;2087124;28;20450;-53
2024/01/13 01:43:55;;;;;;;18.70;13.33;;;;;20.10;101590.00;;;;2094252;28;20216;-52
2024/01/13 01:44:55;;;;;;;19.03;13.13;;;;;20.10;101589.00;;;;2092407;28;20310;-53
2024/01/13 01:45:55;;;;;;;17.20;13.47;;;;;20.10;101597.00;;;;2089258;28;20282;-51
2024/01/13 01:46:57;;;;;;;20.00;13.10;;;;;20.10;101603.00;;;;2067710;28;20710;-52
2024/01/13 01:47:57;;;;;;;16.30;12.57;;;;;20.10;101531.00;;;;2060005;28;20226;-51
2024/01/13 01:48:58;;;;;;;18.60;13.67;;;;;20.10;101002.00;;;;2063578;28;20240;-55
2024/01/13 01:49:59;;;;;;;20.53;13.70;;;;;20.10;101593.00;;;;2069814;28;20218;-53
2024/01/13 01:50:59;;;;;;;19.60;14.03;;;;;20.10;101594.00;;;;2078367;28;20459;-55
2024/01/13 01:51:59;;;;;;;20.60;13.20;;;;;20.10;101591.00;;;;2077400;28;20218;-52
2024/01/13 01:53:00;;;;;;;16.67;12.43;;;;;20.10;101597.00;;;;2066072;28;20209;-51
2024/01/13 01:54:00;;;;;;;15.67;12.67;;;;;20.10;101592.00;;;;2079315;28;20229;-51
2024/01/13 01:55:00;;;;;;;20.20;13.17;;;;;20.00;101599.00;;;;2091490;28;20212;-52
2024/01/13 01:56:02;;;;;;;21.43;14.00;;;;;20.00;101589.00;;;;2082434;28;20228;-51
2024/01/13 01:57:02;;;;;;;17.98;12.90;;;;;20.10;101589.00;;;;2086134;28;20252;-52
2024/01/13 01:58:03;;;;;;;16.83;12.37;;;;;20.00;101594.00;;;;2074886;28;20260;-52
2024/01/13 01:59:03;;;;;;;15.43;11.50;;;;;20.10;101588.00;;;;2072715;28;20213;-53
2024/01/13 02:00:06;;;;;;;15.57;12.57;;;;;20.10;101589.00;;;;2074713;28;20222;-53
2024/01/13 02:01:07;;;;;;;16.98;12.93;;;;;20.10;101580.00;;;;2069823;28;20254;-52
2024/01/13 02:02:07;;;;;;;15.90;12.07;;;;;20.00;101590.00;;;;2078323;28;20221;-52
2024/01/13 02:03:08;;;;;;;17.10;13.20;;;;;20.00;101585.00;;;;2075325;28;20468;-52
2024/01/13 02:04:08;;;;;;;15.77;11.83;;;;;20.10;101582.00;;;;2091897;28;20271;-52
2024/01/13 02:05:09;;;;;;;15.30;11.83;;;;;20.00;101587.00;;;;2086541;28;20247;-51
2024/01/13 02:06:09;;;;;;;14.73;11.60;;;;;20.00;101586.00;;;;2077458;28;20221;-52
2024/01/13 02:07:10;;;;;;;14.90;12.17;;;;;20.00;101587.00;;;;2076349;28;20643;-53
2024/01/13 02:08:10;;;;;;;13.83;11.67;;;;;20.00;101586.00;;;;2066278;28;20235;-53
2024/01/13 02:09:12;;;;;;;15.60;12.30;;;;;20.00;101585.00;;;;2059331;28;20221;-52
2024/01/13 02:10:12;;;;;;;15.88;11.25;;;;;20.00;101596.00;;;;2071089;28;20679;-51
2024/01/13 02:11:13;;;;;;;15.27;12.07;;;;;20.00;101576.00;;;;2084545;28;20216;-51
2024/01/13 02:12:13;;;;;;;16.20;12.50;;;;;20.00;101582.00;;;;2084185;28;20250;-51
2024/01/13 02:13:14;;;;;;;15.30;11.70;;;;;20.00;101580.00;;;;2083217;28;20286;-52
2024/01/13 02:14:14;;;;;;;17.50;12.37;;;;;20.00;101473.00;;;;2082892;28;20680;-52
2024/01/13 02:15:14;;;;;;;14.83;11.63;;;;;20.00;101530.00;;;;2067517;28;20575;-52
2024/01/13 02:16:15;;;;;;;14.70;11.07;;;;;20.00;101570.00;;;;2067446;28;20218;-51
2024/01/13 02:17:15;;;;;;;13.43;10.80;;;;;20.00;101563.00;;;;2072912;28;20213;-52
2024/01/13 02:18:16;;;;;;;15.73;11.50;;;;;20.00;101572.00;;;;2080407;28;20653;-53
2024/01/13 02:19:16;;;;;;;13.80;11.20;;;;;20.00;101569.00;;;;2083124;28;20227;-52
2024/01/13 02:20:16;;;;;;;16.57;11.40;;;;;20.00;101572.00;;;;2086948;28;20237;-52
2024/01/13 02:21:17;;;;;;;15.33;11.20;;;;;20.00;101571.00;;;;2085909;28;20235;-52
2024/01/13 02:22:17;;;;;;;15.47;11.60;;;;;20.00;101571.00;;;;2075387;28;20213;-51
2024/01/13 02:23:17;;;;;;;15.77;10.83;;;;;20.00;101562.00;;;;2084520;28;20263;-51
2024/01/13 02:24:18;;;;;;;13.10;10.63;;;;;20.00;101570.00;;;;2083499;28;20215;-52
2024/01/13 02:25:18;;;;;;;13.97;10.83;;;;;20.00;101544.00;;;;2086555;28;20209;-52
2024/01/13 02:26:19;;;;;;;12.77;10.87;;;;;20.00;101573.00;;;;2076462;28;20246;-52
2024/01/13 02:27:19;;;;;;;13.23;10.43;;;;;19.90;101559.00;;;;2068187;28;20581;-52
2024/01/13 02:28:19;;;;;;;13.37;10.17;;;;;19.90;101559.00;;;;2082144;28;20746;-51
2024/01/13 02:29:20;;;;;;;14.27;10.77;;;;;20.00;101541.00;;;;2085173;28;20216;-52
2024/01/13 02:30:20;;;;;;;15.10;10.87;;;;;20.00;101553.00;;;;2076645;28;20772;-52
2024/01/13 02:31:20;;;;;;;13.50;11.27;;;;;20.00;101558.00;;;;2079045;28;20245;-52
2024/01/13 02:32:21;;;;;;;13.23;10.40;;;;;20.00;101566.00;;;;2075254;28;20758;-53
2024/01/13 02:33:21;;;;;;;13.47;10.77;;;;;20.00;101556.00;;;;2084609;28;20674;-52
2024/01/13 02:34:22;;;;;;;12.60;10.13;;;;;20.00;101559.00;;;;2092142;28;20284;-52
2024/01/13 02:35:22;;;;;;;11.50;9.80;;;;;20.00;101551.00;;;;2085469;28;20243;-51
2024/01/13 02:36:22;;;;;;;12.80;9.97;;;;;19.90;101550.00;;;;2086415;28;20247;-51
2024/01/13 02:37:23;;;;;;;14.70;10.07;;;;;19.90;101544.00;;;;2074981;28;20228;-52
2024/01/13 02:38:23;;;;;;;13.30;10.37;;;;;19.90;101543.00;;;;2085488;28;20877;-53
2024/01/13 02:39:24;;;;;;;12.50;10.33;;;;;19.90;101547.00;;;;2085187;28;20239;-53
2024/01/13 02:40:24;;;;;;;12.10;10.20;;;;;19.90;101547.00;;;;2085276;28;20558;-52
2024/01/13 02:41:24;;;;;;;13.67;10.17;;;;;19.90;101550.00;;;;2085741;28;20212;-51
2024/01/13 02:42:25;;;;;;;12.43;9.50;;;;;19.90;101543.00;;;;2073992;28;20220;-52
2024/01/13 02:43:25;;;;;;;12.67;10.20;;;;;19.90;101543.00;;;;2083906;28;20213;-53
2024/01/13 02:44:25;;;;;;;14.07;10.20;;;;;19.90;101547.00;;;;2091110;28;20238;-52
2024/01/13 02:45:26;;;;;;;15.00;10.50;;;;;19.90;101539.00;;;;2086459;28;20240;-53
2024/01/13 02:46:26;;;;;;;13.67;10.47;;;;;19.90;101544.00;;;;2086787;28;20223;-52
2024/01/13 02:47:32;;;;;;;11.80;9.57;;;;;19.90;101540.00;;;;2075234;28;20216;-53
2024/01/13 02:48:40;;;;;;;13.48;10.55;;;;;19.90;101545.00;;;;2077667;28;20218;-53
2024/01/13 02:49:41;;;;;;;12.20;10.25;;;;;19.90;101532.00;;;;2066657;28;20245;-51
2024/01/13 02:50:44;;;;;;;11.03;9.30;;;;;19.90;101535.00;;;;2061212;28;20215;-52
2024/01/13 02:51:44;;;;;;;14.32;10.65;;;;;19.90;101536.00;;;;2077176;28;20217;-53
2024/01/13 02:52:47;;;;;;;12.50;9.30;;;;;19.90;101532.00;;;;2077674;28;20723;-53
2024/01/13 02:53:47;;;;;;;12.10;9.77;;;;;19.90;101537.00;;;;2093820;28;20216;-51
2024/01/13 02:54:48;;;;;;;12.27;8.67;;;;;19.90;101532.00;;;;2086900;28;20634;-52
2024/01/13 02:55:49;;;;;;;11.75;9.55;;;;;19.90;101532.00;;;;2083513;28;20205;-52
2024/01/13 02:56:49;;;;;;;13.17;10.70;;;;;19.90;101533.00;;;;2084446;28;20201;-51
2024/01/13 02:57:50;;;;;;;10.17;8.20;;;;;19.90;101529.00;;;;2067011;28;20283;-53
2024/01/13 02:58:50;;;;;;;11.88;8.98;;;;;19.90;101531.00;;;;2076577;28;20242;-53
2024/01/13 02:59:51;;;;;;;10.47;8.77;;;;;19.90;101535.00;;;;2085722;28;20251;-51
2024/01/13 03:00:51;;;;;;;11.40;9.27;;;;;19.90;101536.00;;;;2085956;28;20581;-51
2024/01/13 03:01:51;;;;;;;13.20;8.90;;;;;19.90;101526.00;;;;2085793;28;20213;-50
2024/01/13 03:02:52;;;;;;;10.50;8.90;;;;;19.90;101545.00;;;;2076428;28;20224;-52
2024/01/13 03:03:52;;;;;;;12.43;9.43;;;;;19.90;101521.00;;;;2078735;28;20210;-50
2024/01/13 03:04:53;;;;;;;12.80;9.13;;;;;19.90;101512.00;;;;2081157;28;20915;-52
2024/01/13 03:05:53;;;;;;;12.67;8.97;;;;;19.90;101511.00;;;;2084917;28;24051;-52
2024/01/13 03:06:53;;;;;;;9.73;8.13;;;;;19.90;101548.00;;;;2085572;28;22119;-53
2024/01/13 03:07:54;;;;;;;10.23;8.70;;;;;19.90;101507.00;;;;2074924;28;20696;-52
2024/01/13 03:08:54;;;;;;;12.00;8.67;;;;;19.90;101499.00;;;;2081608;28;20996;-52
2024/01/13 03:09:54;;;;;;;10.10;8.20;;;;;19.90;101505.00;;;;2083037;28;20747;-53
2024/01/13 03:10:55;;;;;;;11.67;8.97;;;;;19.90;101499.00;;;;2085646;28;20282;-52
2024/01/13 03:11:55;;;;;;;10.20;8.70;;;;;19.80;101500.00;;;;2087088;28;20220;-52
2024/01/13 03:12:55;;;;;;;10.40;8.60;;;;;19.90;101502.00;;;;2074715;28;20224;-52
2024/01/13 03:13:56;;;;;;;9.67;8.03;;;;;19.90;101496.00;;;;2085304;28;20269;-52
2024/01/13 03:14:56;;;;;;;10.90;8.50;;;;;19.80;101494.00;;;;2089933;28;20245;-51
2024/01/13 03:15:56;;;;;;;10.13;8.03;;;;;19.80;101494.00;;;;2086360;28;20287;-52
2024/01/13 03:16:57;;;;;;;11.97;8.37;;;;;19.80;101489.00;;;;2087060;28;20228;-52
2024/01/13 03:17:57;;;;;;;10.87;8.57;;;;;19.80;101494.00;;;;2075961;28;20241;-53
2024/01/13 03:18:57;;;;;;;10.40;8.37;;;;;19.80;101492.00;;;;2091858;28;20216;-52
2024/01/13 03:19:58;;;;;;;9.27;7.60;;;;;19.80;101488.00;;;;2086119;28;20224;-53
2024/01/13 03:20:58;;;;;;;10.20;7.87;;;;;19.80;101488.00;;;;2087107;28;20244;-51
2024/01/13 03:21:59;;;;;;;9.77;7.80;;;;;19.80;101481.00;;;;2087441;28;20247;-52
2024/01/13 03:22:59;;;;;;;9.70;7.43;;;;;19.80;101486.00;;;;2070915;28;20221;-53
2024/01/13 03:24:00;;;;;;;9.10;7.87;;;;;19.80;101489.00;;;;2082169;28;20625;-53
2024/01/13 03:25:00;;;;;;;9.27;8.13;;;;;19.80;101478.00;;;;2083790;28;20758;-53
2024/01/13 03:26:00;;;;;;;9.43;8.10;;;;;19.80;101212.00;;;;2087206;28;20708;-51
2024/01/13 03:27:01;;;;;;;10.33;8.20;;;;;19.80;101470.00;;;;2086658;28;21011;-51
2024/01/13 03:28:01;;;;;;;9.77;7.50;;;;;19.80;101467.00;;;;2082665;28;20220;-51
2024/01/13 03:29:01;;;;;;;9.53;7.60;;;;;19.80;101475.00;;;;2086607;28;20251;-51
2024/01/13 03:30:02;;;;;;;10.30;7.83;;;;;19.80;101468.00;;;;2079713;28;20305;-51
2024/01/13 03:31:02;;;;;;;9.33;7.17;;;;;19.80;101474.00;;;;2087347;28;20224;-52
2024/01/13 03:32:03;;;;;;;9.57;7.30;;;;;19.80;101470.00;;;;2086847;28;20304;-52
2024/01/13 03:33:03;;;;;;;10.97;7.53;;;;;19.80;101482.00;;;;2081410;28;20718;-51
2024/01/13 03:34:03;;;;;;;11.57;7.30;;;;;19.80;101481.00;;;;2094342;28;20223;-52
2024/01/13 03:35:04;;;;;;;7.90;6.90;;;;;19.80;101478.00;;;;2087822;28;20217;-52
2024/01/13 03:36:04;;;;;;;9.40;6.90;;;;;19.80;101480.00;;;;2086789;28;20217;-52
2024/01/13 03:37:05;;;;;;;11.97;7.87;;;;;19.80;101466.00;;;;2084311;28;20219;-52
2024/01/13 03:38:05;;;;;;;9.20;7.27;;;;;19.80;101478.00;;;;2080618;28;20751;-51
2024/01/13 03:39:06;;;;;;;9.53;7.40;;;;;19.80;101473.00;;;;2085041;28;20213;-52
2024/01/13 03:40:07;;;;;;;10.77;7.80;;;;;19.80;101469.00;;;;2082989;28;20229;-52
2024/01/13 03:41:07;;;;;;;8.57;7.00;;;;;19.80;101467.00;;;;2086538;28;20224;-53
2024/01/13 03:42:07;;;;;;;8.30;7.40;;;;;19.80;101470.00;;;;2085642;28;20477;-56
2024/01/13 03:43:08;;;;;;;9.37;7.17;;;;;19.80;101465.00;;;;2079984;28;20219;-52
2024/01/13 03:44:08;;;;;;;10.17;7.70;;;;;19.80;101466.00;;;;2091440;28;21053;-52
2024/01/13 03:45:09;;;;;;;9.57;7.50;;;;;19.80;101470.00;;;;2088015;28;20574;-52
2024/01/13 03:46:09;;;;;;;8.80;6.97;;;;;19.80;101465.00;;;;2085655;28;20629;-53
2024/01/13 03:47:10;;;;;;;12.37;7.50;;;;;18.70;101457.00;;;;2086276;28;20224;-52
2024/01/13 03:48:10;;;;;;;9.20;7.20;;;;;19.80;101456.00;;;;2075931;28;20223;-52
2024/01/13 03:49:10;;;;;;;7.97;7.00;;;;;19.80;101464.00;;;;2089375;28;20224;-51
2024/01/13 03:50:11;;;;;;;9.40;7.20;;;;;19.80;101454.00;;;;2085737;28;20225;-52
2024/01/13 03:51:12;;;;;;;8.40;6.40;;;;;19.80;101452.00;;;;2085993;28;20259;-53
2024/01/13 03:52:12;;;;;;;8.80;6.82;;;;;19.80;101456.00;;;;2085426;28;20472;-52
2024/01/13 03:53:13;;;;;;;8.87;7.53;;;;;19.70;101452.00;;;;2072717;28;20608;-52
2024/01/13 03:54:13;;;;;;;7.50;6.43;;;;;19.70;101458.00;;;;2086423;28;20220;-52
2024/01/13 03:55:13;;;;;;;8.30;7.03;;;;;19.80;101442.00;;;;2086909;28;20239;-52
2024/01/13 03:56:14;;;;;;;9.20;6.77;;;;;19.80;101451.00;;;;2088392;28;20236;-53
2024/01/13 03:57:14;;;;;;;8.53;6.70;;;;;19.80;101308.00;;;;2091651;28;20260;-53
2024/01/13 03:58:14;;;;;;;8.70;7.00;;;;;19.70;101451.00;;;;2070276;28;20218;-52
2024/01/13 03:59:15;;;;;;;7.83;6.87;;;;;19.70;101450.00;;;;2076207;28;20598;-52
2024/01/13 04:00:15;;;;;;;9.97;6.87;;;;;19.80;101451.00;;;;2086283;28;20224;-52
2024/01/13 04:01:16;;;;;;;8.43;6.93;;;;;19.70;101448.00;;;;2085666;28;20844;-52
2024/01/13 04:02:16;;;;;;;7.20;6.20;;;;;19.70;101452.00;;;;2077940;28;20216;-52
2024/01/13 04:03:17;;;;;;;10.10;6.97;;;;;19.70;101453.00;;;;2089575;28;20279;-51
2024/01/13 04:04:17;;;;;;;7.97;6.13;;;;;19.70;101451.00;;;;2092295;28;20349;-52
2024/01/13 04:05:17;;;;;;;9.23;7.30;;;;;19.70;101448.00;;;;2085681;28;20216;-52
2024/01/13 04:06:18;;;;;;;8.50;6.57;;;;;19.70;101455.00;;;;2083327;28;20219;-52
2024/01/13 04:07:18;;;;;;;9.50;6.80;;;;;19.70;101449.00;;;;2075281;28;20209;-53
2024/01/13 04:08:18;;;;;;;8.93;6.50;;;;;19.70;101450.00;;;;2094360;28;20231;-53
2024/01/13 04:09:19;;;;;;;7.83;7.03;;;;;19.70;101451.00;;;;2092853;28;20212;-51
2024/01/13 04:10:19;;;;;;;8.07;6.80;;;;;19.70;101446.00;;;;2086146;28;20223;-51
2024/01/13 04:11:19;;;;;;;8.17;6.30;;;;;19.70;101446.00;;;;2078149;28;20210;-52
2024/01/13 04:12:21;;;;;;;9.57;6.57;;;;;19.70;101447.00;;;;2065960;28;20222;-52
2024/01/13 04:13:21;;;;;;;9.40;6.75;;;;;19.70;101526.00;;;;2088762;28;20267;-52
2024/01/13 04:14:21;;;;;;;9.50;6.60;;;;;19.70;101454.00;;;;2086334;28;20720;-50
2024/01/13 04:15:22;;;;;;;9.50;6.40;;;;;19.70;101473.00;;;;2087165;28;20696;-51
2024/01/13 04:16:22;;;;;;;10.10;6.60;;;;;19.70;101448.00;;;;2075687;28;20710;-52
2024/01/13 04:17:23;;;;;;;8.07;6.43;;;;;19.70;101446.00;;;;2068008;28;20233;-52
2024/01/13 04:18:23;;;;;;;8.50;6.20;;;;;19.70;101439.00;;;;2094882;28;20328;-52
2024/01/13 04:19:23;;;;;;;9.13;6.17;;;;;19.70;101436.00;;;;2093046;28;20467;-51
2024/01/13 04:20:24;;;;;;;10.07;6.70;;;;;19.70;101435.00;;;;2087003;28;20738;-52
2024/01/13 04:21:24;;;;;;;8.00;6.40;;;;;19.70;101438.00;;;;2083318;28;20224;-51
2024/01/13 04:22:24;;;;;;;7.63;6.40;;;;;19.70;101437.00;;;;2075294;28;20213;-52
2024/01/13 04:23:25;;;;;;;8.60;6.60;;;;;19.70;101442.00;;;;2086716;28;20238;-53
2024/01/13 04:24:25;;;;;;;8.77;6.53;;;;;19.70;101432.00;;;;2083902;28;20217;-53
2024/01/13 04:25:25;;;;;;;9.07;6.47;;;;;19.70;101434.00;;;;2087366;28;20217;-53
2024/01/13 04:26:26;;;;;;;8.00;6.30;;;;;19.70;101443.00;;;;2085484;28;20251;-52
2024/01/13 04:27:26;;;;;;;8.40;6.80;;;;;19.70;101442.00;;;;2076793;28;20308;-52
2024/01/13 04:28:26;;;;;;;7.90;6.10;;;;;19.70;101443.00;;;;2084167;28;20232;-52
2024/01/13 04:29:27;;;;;;;8.97;6.50;;;;;19.70;101439.00;;;;2085004;28;20255;-52
2024/01/13 04:30:28;;;;;;;8.70;6.50;;;;;19.70;101440.00;;;;2087017;28;20961;-52
2024/01/13 04:31:28;;;;;;;8.90;6.72;;;;;19.70;101434.00;;;;2075616;28;20222;-51
2024/01/13 04:32:28;;;;;;;7.30;6.10;;;;;19.70;101425.00;;;;2066765;28;20244;-52
2024/01/13 04:33:29;;;;;;;7.60;6.03;;;;;19.70;101427.00;;;;2085991;28;20330;-53
2024/01/13 04:34:29;;;;;;;8.87;6.20;;;;;19.70;101418.00;;;;2085691;28;20221;-52
2024/01/13 04:35:29;;;;;;;8.50;6.30;;;;;19.70;101420.00;;;;2084512;28;20225;-53
2024/01/13 04:36:30;;;;;;;7.20;5.97;;;;;19.70;101423.00;;;;2085880;28;20304;-51
2024/01/13 04:37:30;;;;;;;9.10;6.37;;;;;19.70;101370.00;;;;2073880;28;20233;-52
2024/01/13 04:38:30;;;;;;;7.63;6.03;;;;;19.70;101418.00;;;;2072031;28;20276;-51
2024/01/13 04:39:31;;;;;;;8.20;6.23;;;;;19.70;101415.00;;;;2076262;28;20593;-52
2024/01/13 04:40:36;;;;;;;9.20;6.53;;;;;19.70;101413.00;;;;2085898;28;20707;-52
2024/01/13 04:41:41;;;;;;;9.38;6.35;;;;;19.70;101430.00;;;;2087011;28;20292;-51
2024/01/13 04:42:41;;;;;;;7.30;6.25;;;;;19.70;101412.00;;;;2070314;28;20228;-51
2024/01/13 04:43:42;;;;;;;7.67;6.17;;;;;19.70;101412.00;;;;2094150;28;20220;-52
2024/01/13 04:44:42;;;;;;;7.80;5.90;;;;;19.70;101413.00;;;;2090081;28;20220;-52
2024/01/13 04:45:42;;;;;;;8.40;5.80;;;;;19.70;101403.00;;;;2072215;28;20241;-53
2024/01/13 04:46:43;;;;;;;9.03;6.50;;;;;19.70;101405.00;;;;2078431;28;20209;-51
2024/01/13 04:47:43;;;;;;;8.70;6.00;;;;;19.70;101416.00;;;;2068152;28;20225;-50
2024/01/13 04:48:44;;;;;;;8.47;6.07;;;;;19.60;101407.00;;;;2086388;28;20307;-52
2024/01/13 04:49:44;;;;;;;6.43;5.33;;;;;19.70;101409.00;;;;2086228;28;20221;-57
2024/01/13 04:50:44;;;;;;;7.90;5.60;;;;;19.60;101403.00;;;;2086393;28;20223;-53
2024/01/13 04:51:45;;;;;;;7.17;6.00;;;;;19.60;101398.00;;;;2086863;28;20232;-52
2024/01/13 04:52:45;;;;;;;7.90;5.80;;;;;19.60;101392.00;;;;2070402;28;20373;-50
2024/01/13 04:53:45;;;;;;;6.90;6.20;;;;;19.60;101404.00;;;;2094363;28;20739;-52